Terminal Aerodrome Forecast
Issued by NWS Newport/Morehead City, NC

Home | Current Version | Previous Version | Text Only | Print | Product List | Glossary On
Versions: 1 2 3 4 5 6 7 8 9 10 11 12 13 14 15
000
FTUS42 KMHX 151121
TAFEWN
TAF
KEWN 151121Z 1512/1612 00000KT P6SM BKN020
     FM151500 22004KT P6SM SCT040
     FM160600 22003KT 3SM BR SCT005=

USA.gov is the U.S. government's official web portal to all federal, state and local government web resources and services.